SVA1669 OERK-OEAB
Flight info
| Callsign | SVA1669 |
|---|---|
| Flight time | N/A |
| Altitude | 36000 |
| Route | MERVI Z414 EMEKO/N0471F350 V40 ABH |
| Aircraft | A320/M-SDE3FGHIRWY/LB1 |
Departure
| Time | 2026-04-30 14:54 |
|---|---|
| Airport | King Khalid International Airport (OERK) |
Arrival
| Time | N/A |
|---|---|
| Airport | Abha International Airport (OEAB) |
| Time | Latitude | Longitude | Altitude | Speed | Heading |
|---|---|---|---|---|---|
| 2026-04-30 14:37 | 24.94791 | 46.71262 | 2035 ft | 0 kts | 60° |
| 2026-04-30 14:43 | 24.94786 | 46.71252 | 2041 ft | 4 kts | 59° |
| 2026-04-30 14:43 | 24.94771 | 46.71227 | 2036 ft | 4 kts | 57° |
| 2026-04-30 14:43 | 24.94756 | 46.71202 | 2038 ft | 4 kts | 52° |
| 2026-04-30 14:43 | 24.94739 | 46.71180 | 2034 ft | 4 kts | 38° |
| 2026-04-30 14:44 | 24.94718 | 46.71169 | 2035 ft | 4 kts | 342° |
| 2026-04-30 14:44 | 24.94713 | 46.71170 | 2035 ft | 0 kts | 330° |
| 2026-04-30 14:45 | 24.94714 | 46.71170 | 2035 ft | 1 kts | 330° |
| 2026-04-30 14:45 | 24.94738 | 46.71155 | 2038 ft | 6 kts | 330° |
| 2026-04-30 14:46 | 24.94789 | 46.71122 | 2039 ft | 11 kts | 330° |
| 2026-04-30 14:46 | 24.94867 | 46.71073 | 2031 ft | 15 kts | 330° |
| 2026-04-30 14:46 | 24.94972 | 46.71006 | 2034 ft | 20 kts | 330° |
| 2026-04-30 14:46 | 24.95099 | 46.70926 | 2034 ft | 22 kts | 330° |
| 2026-04-30 14:47 | 24.95213 | 46.70874 | 2031 ft | 16 kts | 13° |
| 2026-04-30 14:47 | 24.95273 | 46.70967 | 2034 ft | 15 kts | 59° |
| 2026-04-30 14:47 | 24.95327 | 46.71070 | 2033 ft | 16 kts | 61° |
| 2026-04-30 14:47 | 24.95382 | 46.71175 | 2037 ft | 16 kts | 60° |
| 2026-04-30 14:48 | 24.95439 | 46.71257 | 2033 ft | 13 kts | 22° |
| 2026-04-30 14:48 | 24.95519 | 46.71229 | 2035 ft | 11 kts | 329° |
| 2026-04-30 14:48 | 24.95582 | 46.71189 | 2038 ft | 10 kts | 330° |
| 2026-04-30 14:48 | 24.95644 | 46.71150 | 2034 ft | 11 kts | 330° |
| 2026-04-30 14:49 | 24.95711 | 46.71108 | 2033 ft | 11 kts | 330° |
| 2026-04-30 14:49 | 24.95771 | 46.71070 | 2040 ft | 9 kts | 329° |
| 2026-04-30 14:49 | 24.95832 | 46.71031 | 2034 ft | 12 kts | 330° |
| 2026-04-30 14:49 | 24.95919 | 46.70976 | 2033 ft | 17 kts | 330° |
| 2026-04-30 14:50 | 24.96172 | 46.70815 | 2037 ft | 25 kts | 331° |
| 2026-04-30 14:50 | 24.96333 | 46.70714 | 2034 ft | 27 kts | 330° |
| 2026-04-30 14:51 | 24.96669 | 46.70502 | 2029 ft | 28 kts | 330° |
| 2026-04-30 14:51 | 24.96843 | 46.70393 | 2031 ft | 29 kts | 330° |
| 2026-04-30 14:51 | 24.97046 | 46.70377 | 2029 ft | 13 kts | 59° |
| 2026-04-30 14:52 | 24.97092 | 46.70465 | 2029 ft | 14 kts | 60° |
| 2026-04-30 14:52 | 24.97097 | 46.70572 | 2030 ft | 0 kts | 148° |
| 2026-04-30 14:52 | 24.97097 | 46.70573 | 2030 ft | 1 kts | 148° |
| 2026-04-30 14:53 | 24.96398 | 46.71013 | 2033 ft | 120 kts | 150° |
| 2026-04-30 14:53 | 24.95516 | 46.71573 | 2042 ft | 170 kts | 152° |
| 2026-04-30 14:54 | 24.93536 | 46.72946 | 3307 ft | 167 kts | 138° |
| 2026-04-30 14:54 | 24.91678 | 46.74686 | 4200 ft | 195 kts | 137° |
| 2026-04-30 14:55 | 24.89378 | 46.76850 | 4759 ft | 239 kts | 137° |
| 2026-04-30 14:55 | 24.88043 | 46.78087 | 5035 ft | 261 kts | 140° |
| 2026-04-30 14:55 | 24.84775 | 46.80118 | 6370 ft | 274 kts | 150° |
| 2026-04-30 14:56 | 24.81391 | 46.82048 | 8010 ft | 274 kts | 154° |
| 2026-04-30 14:56 | 24.77836 | 46.83640 | 9318 ft | 283 kts | 168° |
| 2026-04-30 14:57 | 24.75915 | 46.84172 | 10036 ft | 286 kts | 169° |
| 2026-04-30 14:57 | 24.71793 | 46.85303 | 10530 ft | 327 kts | 169° |
| 2026-04-30 14:58 | 24.67054 | 46.86331 | 10840 ft | 362 kts | 184° |
| 2026-04-30 14:58 | 24.64575 | 46.85836 | 11308 ft | 364 kts | 202° |
| 2026-04-30 14:58 | 24.60747 | 46.82368 | 12553 ft | 363 kts | 239° |
| 2026-04-30 14:59 | 24.58308 | 46.77493 | 13889 ft | 365 kts | 242° |
| 2026-04-30 15:00 | 24.54624 | 46.70077 | 15549 ft | 372 kts | 242° |
| 2026-04-30 15:00 | 24.52106 | 46.65055 | 16613 ft | 377 kts | 242° |
| 2026-04-30 15:01 | 24.49566 | 46.60001 | 17635 ft | 382 kts | 242° |
| 2026-04-30 15:01 | 24.48281 | 46.57431 | 18125 ft | 385 kts | 243° |
| 2026-04-30 15:01 | 24.46715 | 46.51800 | 18993 ft | 390 kts | 263° |
| 2026-04-30 15:02 | 24.46612 | 46.48819 | 19408 ft | 393 kts | 267° |
| 2026-04-30 15:02 | 24.46564 | 46.45806 | 19828 ft | 395 kts | 267° |
| 2026-04-30 15:03 | 24.46418 | 46.36725 | 21026 ft | 401 kts | 267° |
| 2026-04-30 15:03 | 24.46310 | 46.30567 | 21773 ft | 405 kts | 268° |
| 2026-04-30 15:04 | 24.46198 | 46.24340 | 22498 ft | 409 kts | 268° |
| 2026-04-30 15:04 | 24.46027 | 46.14909 | 23537 ft | 415 kts | 268° |
| 2026-04-30 15:05 | 24.45842 | 46.05406 | 24408 ft | 418 kts | 267° |
| 2026-04-30 15:06 | 24.45223 | 45.99069 | 24947 ft | 419 kts | 254° |
| 2026-04-30 15:06 | 24.42603 | 45.93359 | 25443 ft | 424 kts | 234° |
| 2026-04-30 15:07 | 24.38280 | 45.88880 | 25903 ft | 431 kts | 223° |
| 2026-04-30 15:07 | 24.33655 | 45.84675 | 26339 ft | 432 kts | 223° |
| 2026-04-30 15:08 | 24.29012 | 45.80461 | 26752 ft | 433 kts | 223° |
| 2026-04-30 15:08 | 24.22097 | 45.74203 | 27603 ft | 429 kts | 223° |
| 2026-04-30 15:09 | 24.17515 | 45.70054 | 28166 ft | 426 kts | 223° |
| 2026-04-30 15:09 | 24.12957 | 45.65931 | 28712 ft | 424 kts | 223° |
| 2026-04-30 15:10 | 24.08403 | 45.61835 | 29224 ft | 422 kts | 223° |
| 2026-04-30 15:11 | 23.99392 | 45.53726 | 30251 ft | 419 kts | 223° |
| 2026-04-30 15:11 | 23.94893 | 45.49670 | 30651 ft | 418 kts | 223° |
| 2026-04-30 15:12 | 23.88162 | 45.43621 | 31243 ft | 417 kts | 223° |
| 2026-04-30 15:13 | 23.83676 | 45.39589 | 31631 ft | 417 kts | 223° |
| 2026-04-30 15:14 | 23.74775 | 45.31603 | 32527 ft | 414 kts | 223° |
| 2026-04-30 15:14 | 23.68098 | 45.25627 | 33161 ft | 413 kts | 223° |
| 2026-04-30 15:16 | 23.56985 | 45.15699 | 34219 ft | 411 kts | 223° |
| 2026-04-30 15:17 | 23.48170 | 45.07837 | 34946 ft | 410 kts | 223° |
| 2026-04-30 15:18 | 23.36453 | 44.98857 | 35711 ft | 412 kts | 218° |
| 2026-04-30 15:19 | 23.29325 | 44.93538 | 35899 ft | 416 kts | 219° |